Detall de PIREP

Printer-friendly versionPDF version

[2013/11/06 11:02:00]
Flight IATA:CT0001
Pilot Number:042
Company ICAO:CAT
Aircraft Type:B738/F
PAX:96
Departing Airport: LEAL
Destination Airport: LEBL
Alternate Airport:LEPA
Online: VATSIM
Route:SOPET UN608 MATEX
Flight Level:F300
No Slew and time accel
No pause
Crash detect
Detect pilot in Cockpit between each 30 and 45 minutes
11:02 Zero fuel Weight: 121807 Lbs, Fuel Weight: 45557 Lbs
11:02 VATSIM:LEAL 061030Z 23008KT 200V270 CAVOK 28/12 Q1019 NOSIG
11:02 VATSIM:LEBL 061030Z 10010KT 060V120 CAVOK 21/15 Q1017 NOSIG
11:03 VOICE CATALONIAN
11:15 Parking Brakes off
11:23 Take-off
11:23 Take off Weight: 151363 Lbs
11:23 Wind: 239º @ 006 Knots Heading: 278º
11:23 POS N38º 16´ 56´´ W000º 33´ 39´´
11:23 Flaps:3 at 166 Knots
11:23 Gear Up: 166 Knots
11:23 Flaps:2 at 182 Knots
11:24 Flaps:1 at 182 Knots
11:25 Flaps:0 at 208 Knots
11:38 Wind:234º@005 Knots Heading: 352º Ground Speed: 444 Knots Altitude 20042 ft
11:53 Wind:298º@007 Knots Heading: 048º Ground Speed: 432 Knots Altitude 23727 ft
12:04 Flaps:1 at 221 Knots
12:04 Flaps:2 at 196 Knots
12:07 Flaps:3 at 208 Knots
12:08 Wind:089º@003 Knots Heading: 120º Ground Speed: 231 Knots Altitude 5232 ft
12:09 Flaps:4 at 238 Knots
12:09 Gear Down: 232 Knots
12:09 Flaps:5 at 193 Knots
12:10 Flaps:6 at 180 Knots
12:10 Flaps:7 at 168 Knots
12:12 TouchDown:Rate -79 ft/min Speed: 137 Knots
12:12 VATSIM:LEBL 061130Z 09006KT 060V120 CAVOK 23/14 Q1016 NOSIG
12:12 Land
12:12 Wind:089º@005 Knots
12:12 Heading: 067º
12:12 Flight Duration: 00:49
12:12 Landing Weight: 146016 Lbs
12:12 POS N41º 18´ 00´´ E002º 05´ 15´´
12:19 Parking brakes on
12:19 Block to Block Duration: 01:04
12:19 Final Fuel: 23573 Lbls
12:19 Spent Fuel: 21984 Lbls
12:19 Flight Length: 294 NM
12:19 TOD Land Length: 294 NM

Exportar CSV

Powered by Drupal - Modified by Danger4k